Time;durP1;ratioP1;P1;durP2;ratioP2;P2;SDS_P1;SDS_P2;PMS_P1;PMS_P2;Temp;Humidity;BMP_temperature;BMP_pressure;BME280_temperature;BME280_humidity;BME280_pressure;Samples;Min_cycle;Max_cycle;Signal;HPM_P1;HPM_P2
2022/10/11 00:02:11;;;;;;;21.70;13.38;;;;;;;9.57;72.08;101023.23;1663236;85;21091;-74
2022/10/11 00:04:56;;;;;;;23.65;15.03;;;;;;;9.53;72.11;101022.38;1666719;85;21129;-74
2022/10/11 00:07:42;;;;;;;23.10;15.63;;;;;;;9.53;72.12;101025.40;1674832;84;21040;-74
2022/10/11 00:10:27;;;;;;;19.92;15.28;;;;;;;9.50;72.16;101024.13;1671922;84;21593;-74
2022/10/11 00:13:12;;;;;;;24.00;15.32;;;;;;;9.48;72.21;101023.27;1660580;83;21107;-74
2022/10/11 00:15:58;;;;;;;26.80;16.12;;;;;;;9.46;72.27;101024.57;1673291;84;21298;-74
2022/10/11 00:18:43;;;;;;;20.70;15.18;;;;;;;9.45;72.30;101023.28;1676395;83;21065;-74
2022/10/11 00:21:29;;;;;;;23.07;16.35;;;;;;;9.44;72.36;101028.88;1673715;83;21077;-74
2022/10/11 00:24:15;;;;;;;21.60;15.30;;;;;;;9.42;72.40;101043.95;1659943;84;21144;-74
2022/10/11 00:27:00;;;;;;;20.68;16.00;;;;;;;9.39;72.47;101046.11;1671047;83;21061;-75
2022/10/11 00:29:45;;;;;;;19.92;14.75;;;;;;;9.39;72.52;101053.85;1679067;85;21558;-74
2022/10/11 00:32:33;;;;;;;21.52;13.98;;;;;;;9.39;72.56;101054.28;1676196;83;21101;-74
2022/10/11 00:35:18;;;;;;;21.80;14.20;;;;;;;9.40;72.58;101062.45;1687065;83;21145;-74
2022/10/11 00:38:03;;;;;;;19.50;13.85;;;;;;;9.42;72.63;101062.02;1683377;83;21070;-74
2022/10/11 00:40:48;;;;;;;17.50;12.98;;;;;;;9.43;72.64;101061.16;1694294;83;21117;-74
2022/10/11 00:43:33;;;;;;;21.07;12.23;;;;;;;9.43;72.73;101062.02;1693939;83;21471;-74
2022/10/11 00:46:25;;;;;;;16.73;10.72;;;;;;;9.44;72.74;101067.59;1692166;83;21038;-74
2022/10/11 00:49:33;;;;;;;17.17;10.95;;;;;;;9.47;72.79;101065.44;1697276;83;21047;-74
2022/10/11 00:52:40;;;;;;;12.65;10.15;;;;;;;9.48;72.80;101062.84;1697691;83;21070;-74
2022/10/11 00:55:30;;;;;;;12.82;10.38;;;;;;;9.51;72.88;101063.27;1680026;83;21488;-74
2022/10/11 00:58:17;;;;;;;12.28;9.83;;;;;;;9.54;72.92;101083.48;1664838;83;21270;-74
2022/10/11 01:01:03;;;;;;;11.48;9.10;;;;;;;9.57;72.97;101087.34;1680318;83;20979;-74
2022/10/11 01:03:48;;;;;;;13.48;8.80;;;;;;;9.60;73.05;101075.70;1689240;83;21026;-74
2022/10/11 01:06:34;;;;;;;15.45;9.58;;;;;;;9.65;73.12;101081.28;1683455;83;21086;-74
2022/10/11 01:09:21;;;;;;;15.03;8.48;;;;;;;9.71;73.12;101086.42;1668252;83;21533;-74
2022/10/11 01:12:19;;;;;;;9.15;8.15;;;;;;;9.75;73.20;101082.52;1689795;83;22255;-74
2022/10/11 01:15:27;;;;;;;13.55;8.40;;;;;;;9.79;73.21;101079.06;1688078;83;21094;-74
2022/10/11 01:18:29;;;;;;;12.68;7.97;;;;;;;9.85;73.25;101084.63;1680502;83;21594;-74
2022/10/11 01:21:37;;;;;;;11.60;7.97;;;;;;;9.91;73.30;101085.84;1690606;83;21145;-74
2022/10/11 01:24:33;;;;;;;10.82;7.53;;;;;;;9.98;73.36;101089.26;1694600;83;21072;-74
2022/10/11 01:27:35;;;;;;;9.63;7.30;;;;;;;10.04;73.42;101096.97;1692772;83;21002;-74
2022/10/11 01:30:35;;;;;;;16.25;7.70;;;;;;;10.09;73.50;101104.27;1694486;82;21034;-74
2022/10/11 01:33:38;;;;;;;10.85;7.45;;;;;;;10.14;73.49;101116.72;1659708;83;21598;-74
2022/10/11 01:36:40;;;;;;;10.15;7.15;;;;;;;10.15;73.54;101118.44;1674673;84;21062;-75
2022/10/11 01:39:48;;;;;;;9.00;7.90;;;;;;;10.16;73.56;101125.33;1661069;84;21631;-75
2022/10/11 01:42:37;;;;;;;11.63;7.80;;;;;;;10.20;73.63;101137.39;1673625;84;21066;-75
2022/10/11 01:45:22;;;;;;;10.60;7.60;;;;;;;10.24;73.70;101133.92;1679029;83;21523;-75
2022/10/11 01:48:13;;;;;;;8.60;7.33;;;;;;;10.26;73.68;101136.92;1672914;83;21107;-75
2022/10/11 01:51:01;;;;;;;10.28;7.75;;;;;;;10.30;73.74;101140.78;1678767;84;21170;-75
2022/10/11 01:54:14;;;;;;;11.93;7.62;;;;;;;10.33;73.78;101144.64;1658878;84;36846;-75
2022/10/11 01:57:34;;;;;;;8.73;6.92;;;;;;;10.35;73.80;101150.22;1659997;84;21055;-75
2022/10/11 02:00:23;;;;;;;11.40;6.95;;;;;;;10.39;73.84;101145.89;1656219;84;21063;-74
2022/10/11 02:03:35;;;;;;;13.43;6.75;;;;;;;10.42;73.94;101142.81;1675657;84;21631;-74
2022/10/11 02:06:52;;;;;;;9.98;7.05;;;;;;;10.46;73.94;101147.53;1684075;84;21142;-75
2022/10/11 02:10:16;;;;;;;8.53;6.30;;;;;;;10.48;73.98;101141.48;1675236;84;21075;-74
2022/10/11 02:13:08;;;;;;;9.43;7.10;;;;;;;10.51;74.02;101149.66;1682318;84;21071;-74
2022/10/11 02:15:55;;;;;;;9.25;7.00;;;;;;;10.52;74.05;101139.30;1679621;84;21561;-74
2022/10/11 02:18:48;;;;;;;7.92;6.33;;;;;;;10.50;74.06;101143.62;1666550;84;21595;-74
2022/10/11 02:21:35;;;;;;;9.68;6.53;;;;;;;10.50;74.07;101151.81;1674879;82;21097;-74
2022/10/11 02:24:26;;;;;;;9.50;6.53;;;;;;;10.51;74.14;101147.07;1673130;84;21062;-74
2022/10/11 02:27:12;;;;;;;10.68;6.60;;;;;;;10.52;74.16;101162.58;1673090;84;21864;-75
2022/10/11 02:30:01;;;;;;;13.13;6.60;;;;;;;10.54;74.21;101163.42;1663192;84;21427;-75
2022/10/11 02:32:49;;;;;;;7.35;6.60;;;;;;;10.56;74.26;101164.70;1674860;84;21090;-75
2022/10/11 02:35:38;;;;;;;10.35;6.33;;;;;;;10.57;74.28;101172.45;1691839;83;21108;-75
2022/10/11 02:38:44;;;;;;;10.72;6.67;;;;;;;10.59;74.32;101175.03;1688449;82;21064;-75
2022/10/11 02:41:42;;;;;;;7.70;6.10;;;;;;;10.61;74.37;101179.75;1694004;83;21570;-75
2022/10/11 02:44:32;;;;;;;8.50;6.20;;;;;;;10.63;74.43;101176.72;1687029;83;21108;-75
2022/10/11 02:47:17;;;;;;;10.18;6.78;;;;;;;10.65;74.46;101185.77;1690624;83;21098;-74
2022/10/11 02:50:03;;;;;;;6.53;5.97;;;;;;;10.65;74.48;101189.20;1689410;83;21036;-74
2022/10/11 02:52:48;;;;;;;10.20;6.47;;;;;;;10.67;74.52;101187.91;1689971;83;21099;-74
2022/10/11 02:55:33;;;;;;;11.50;6.17;;;;;;;10.68;74.57;101192.20;1690461;83;21068;-74
2022/10/11 02:58:19;;;;;;;7.10;6.22;;;;;;;10.68;74.60;101194.36;1696978;83;21605;-74
2022/10/11 03:01:05;;;;;;;6.30;5.58;;;;;;;10.69;74.55;101198.66;1686581;83;21622;-74
2022/10/11 03:03:50;;;;;;;6.80;5.67;;;;;;;10.68;74.59;101204.70;1694283;83;21081;-74
2022/10/11 03:06:35;;;;;;;14.15;5.78;;;;;;;10.68;74.66;101206.43;1692856;83;21496;-74
2022/10/11 03:09:20;;;;;;;7.05;5.65;;;;;;;10.65;74.66;101213.78;1696221;83;21143;-74
2022/10/11 03:12:06;;;;;;;6.45;5.37;;;;;;;10.60;74.67;101209.92;1697520;83;21557;-74
2022/10/11 03:14:51;;;;;;;8.35;6.03;;;;;;;10.55;74.71;101217.29;1695117;83;21107;-74
2022/10/11 03:17:37;;;;;;;12.27;5.87;;;;;;;10.49;74.73;101225.08;1690998;83;21511;-74
2022/10/11 03:20:23;;;;;;;9.73;5.37;;;;;;;10.40;74.75;101222.58;1688711;83;21601;-74
2022/10/11 03:23:08;;;;;;;7.55;5.80;;;;;;;10.36;74.76;101242.42;1698561;82;20926;-74
2022/10/11 03:25:53;;;;;;;8.20;5.12;;;;;;;10.29;74.78;101251.07;1687112;84;20987;-74
2022/10/11 03:28:38;;;;;;;6.87;5.78;;;;;;;10.22;74.86;101251.53;1695382;83;20898;-74
2022/10/11 03:31:23;;;;;;;6.90;5.53;;;;;;;10.18;74.88;101256.68;1692546;83;20973;-74
2022/10/11 03:34:08;;;;;;;8.18;5.08;;;;;;;10.12;74.92;101266.61;1694749;83;21498;-74
2022/10/11 03:36:53;;;;;;;10.48;5.22;;;;;;;10.08;74.94;101266.63;1689499;83;20966;-74
2022/10/11 03:39:38;;;;;;;6.55;4.95;;;;;;;10.03;74.99;101269.22;1695190;84;21496;-74
2022/10/11 03:42:23;;;;;;;6.62;5.15;;;;;;;9.98;74.98;101272.69;1688398;83;21390;-74
2022/10/11 03:45:09;;;;;;;6.83;5.22;;;;;;;9.91;74.95;101283.47;1685282;82;20967;-74
2022/10/11 03:47:54;;;;;;;7.33;5.55;;;;;;;9.85;75.07;101289.97;1691263;82;21353;-74
2022/10/11 03:50:39;;;;;;;8.30;5.28;;;;;;;9.80;75.11;101288.69;1689863;82;21061;-75
2022/10/11 03:53:24;;;;;;;9.83;5.60;;;;;;;9.74;75.11;101297.73;1691164;82;21090;-74
2022/10/11 03:56:10;;;;;;;7.40;4.92;;;;;;;9.68;75.14;101306.78;1690549;83;21410;-74
2022/10/11 03:58:55;;;;;;;6.37;4.75;;;;;;;9.63;75.16;101309.37;1683525;82;21097;-74
2022/10/11 04:01:40;;;;;;;6.42;4.58;;;;;;;9.58;75.22;101311.09;1693958;83;21109;-74
2022/10/11 04:04:25;;;;;;;8.95;4.55;;;;;;;9.57;75.24;101317.55;1683647;83;21492;-74
2022/10/11 04:07:10;;;;;;;6.10;4.47;;;;;;;9.57;75.26;101324.00;1691029;82;21364;-74
2022/10/11 04:09:55;;;;;;;6.28;4.20;;;;;;;9.55;75.28;101325.72;1688325;83;21014;-73
2022/10/11 04:12:41;;;;;;;5.85;3.98;;;;;;;9.53;75.28;101325.72;1692481;82;21113;-73
2022/10/11 04:15:26;;;;;;;5.78;3.80;;;;;;;9.49;75.28;101329.59;1694611;82;21514;-73
2022/10/11 04:18:11;;;;;;;8.45;3.95;;;;;;;9.46;75.30;101335.63;1689283;82;21526;-73
2022/10/11 04:20:56;;;;;;;4.78;3.22;;;;;;;9.43;75.34;101343.80;1697046;83;21078;-74
2022/10/11 04:23:41;;;;;;;11.50;3.85;;;;;;;9.39;75.34;101343.36;1685169;82;21136;-73
2022/10/11 04:26:26;;;;;;;4.78;3.90;;;;;;;9.34;75.35;101336.08;1685471;82;21074;-74
2022/10/11 04:29:11;;;;;;;9.70;4.50;;;;;;;9.29;75.39;101338.22;1692708;82;20979;-73
2022/10/11 04:31:56;;;;;;;10.68;3.55;;;;;;;9.26;75.42;101338.22;1679817;82;21113;-73
2022/10/11 04:34:42;;;;;;;8.50;3.10;;;;;;;9.20;75.43;101333.05;1683063;82;21112;-74
2022/10/11 04:37:27;;;;;;;6.90;3.20;;;;;;;9.16;75.42;101343.37;1690586;82;21084;-73
2022/10/11 04:40:12;;;;;;;6.55;2.85;;;;;;;9.12;75.45;101344.22;1681722;82;21180;-73
2022/10/11 04:42:58;;;;;;;6.53;3.00;;;;;;;9.09;75.47;101353.24;1695194;83;21156;-73
2022/10/11 04:45:44;;;;;;;6.07;2.70;;;;;;;9.06;75.47;101355.39;1692898;83;21056;-73
2022/10/11 04:48:29;;;;;;;6.35;2.87;;;;;;;9.02;75.52;101357.52;1684550;82;21872;-73
2022/10/11 04:51:14;;;;;;;6.75;2.60;;;;;;;8.98;75.50;101364.83;1691635;83;21116;-73
2022/10/11 04:53:59;;;;;;;7.65;3.08;;;;;;;8.95;75.53;101376.42;1683773;83;21117;-73
2022/10/11 04:56:44;;;;;;;5.28;2.50;;;;;;;8.91;75.57;101372.97;1694876;83;21086;-73
2022/10/11 04:59:30;;;;;;;5.15;2.75;;;;;;;8.88;75.58;101370.38;1693133;82;21549;-73
2022/10/11 05:02:15;;;;;;;7.28;2.47;;;;;;;8.85;75.61;101378.11;1681614;82;21165;-73
2022/10/11 05:05:00;;;;;;;9.08;2.60;;;;;;;8.82;75.62;101386.30;1686100;83;21492;-73
2022/10/11 05:07:45;;;;;;;9.23;2.77;;;;;;;8.78;75.62;101388.43;1685098;83;21078;-73
2022/10/11 05:10:30;;;;;;;6.83;2.40;;;;;;;8.77;75.66;101395.73;1693611;83;21093;-73
2022/10/11 05:13:15;;;;;;;7.70;2.58;;;;;;;8.73;75.62;101403.88;1692339;83;21110;-73
2022/10/11 05:16:01;;;;;;;7.85;2.75;;;;;;;8.68;75.67;101404.29;1686210;83;21022;-73
2022/10/11 05:18:46;;;;;;;6.00;2.58;;;;;;;8.67;75.70;101410.73;1686594;83;21107;-73
2022/10/11 05:21:31;;;;;;;7.47;2.52;;;;;;;8.64;75.73;101412.86;1687950;83;21523;-73
2022/10/11 05:24:16;;;;;;;7.60;3.00;;;;;;;8.61;75.71;101421.88;1692333;83;21086;-73
2022/10/11 05:27:01;;;;;;;7.37;2.67;;;;;;;8.56;75.73;101430.88;1683223;82;21752;-73
2022/10/11 05:29:47;;;;;;;7.95;2.30;;;;;;;8.53;75.78;101427.41;1688928;83;21474;-73
2022/10/11 05:32:31;;;;;;;6.92;2.62;;;;;;;8.53;75.82;101435.14;1692921;83;21539;-73
2022/10/11 05:35:17;;;;;;;9.40;2.37;;;;;;;8.53;75.85;101443.73;1693254;83;21361;-73
2022/10/11 05:38:02;;;;;;;8.58;2.12;;;;;;;8.53;75.86;101450.61;1684465;83;21165;-73
2022/10/11 05:40:47;;;;;;;6.47;2.72;;;;;;;8.54;75.89;101451.05;1688189;82;21051;-73
2022/10/11 05:43:32;;;;;;;10.53;3.20;;;;;;;8.56;75.92;101450.63;1698016;82;21117;-73
2022/10/11 05:46:18;;;;;;;8.38;2.80;;;;;;;8.63;75.99;101456.26;1694187;83;21094;-73
2022/10/11 05:49:03;;;;;;;6.08;2.50;;;;;;;8.72;75.97;101464.47;1694173;83;21082;-73
2022/10/11 05:51:48;;;;;;;11.00;2.52;;;;;;;8.77;76.00;101467.50;1693478;83;21752;-73
2022/10/11 05:54:33;;;;;;;6.42;2.42;;;;;;;8.82;76.01;101471.40;1695881;83;21078;-73
2022/10/11 05:57:18;;;;;;;11.83;2.85;;;;;;;8.86;75.98;101480.84;1691192;82;21054;-73
2022/10/11 06:00:05;;;;;;;4.50;2.05;;;;;;;8.91;76.07;101487.75;1683086;83;21462;-73
2022/10/11 06:02:51;;;;;;;10.40;3.02;;;;;;;8.96;76.08;101489.06;1698784;83;20923;-73
2022/10/11 06:05:36;;;;;;;8.60;2.90;;;;;;;9.03;76.13;101497.27;1683728;83;20986;-73
2022/10/11 06:08:21;;;;;;;11.40;3.65;;;;;;;9.11;76.12;101496.88;1696746;83;21073;-73
2022/10/11 06:11:24;;;;;;;12.13;3.83;;;;;;;9.21;76.21;101501.64;1691834;83;21065;-73
2022/10/11 06:14:10;;;;;;;16.52;4.17;;;;;;;9.41;76.32;101507.70;1680894;83;21785;-73
2022/10/11 06:16:55;;;;;;;19.35;4.60;;;;;;;9.73;76.33;101508.22;1697713;83;21198;-73
2022/10/11 06:19:40;;;;;;;14.38;4.70;;;;;;;10.02;76.34;101516.84;1694490;82;21552;-73
2022/10/11 06:22:25;;;;;;;12.65;4.35;;;;;;;10.43;76.39;101512.11;1680929;82;21581;-73
2022/10/11 06:25:10;;;;;;;12.07;4.90;;;;;;;10.95;76.42;101518.02;1694064;82;21577;-73
2022/10/11 06:27:56;;;;;;;13.40;3.72;;;;;;;11.46;76.29;101525.98;1691007;83;20998;-74
2022/10/11 06:30:42;;;;;;;10.93;3.40;;;;;;;11.88;76.22;101529.23;1698271;82;21245;-74
2022/10/11 06:33:27;;;;;;;8.58;2.60;;;;;;;12.35;76.18;101529.28;1690808;83;21663;-74
2022/10/11 06:36:14;;;;;;;9.45;2.95;;;;;;;12.76;76.17;101532.75;1674603;83;21025;-75
2022/10/11 06:39:00;;;;;;;9.55;2.47;;;;;;;13.25;76.24;101542.16;1662124;84;21080;-74
2022/10/11 06:41:45;;;;;;;10.95;2.55;;;;;;;13.75;76.27;101544.07;1675837;83;21132;-74
2022/10/11 06:44:30;;;;;;;7.97;2.22;;;;;;;14.26;76.15;101545.44;1663998;83;21057;-74
2022/10/11 06:47:15;;;;;;;4.37;1.80;;;;;;;14.67;76.04;101552.99;1669495;84;21125;-74
2022/10/11 06:50:00;;;;;;;5.33;2.25;;;;;;;15.09;76.15;101554.77;1666080;83;21053;-74
2022/10/11 06:52:47;;;;;;;9.70;2.58;;;;;;;15.56;76.20;101559.46;1678496;85;21431;-75
2022/10/11 06:55:32;;;;;;;6.30;2.40;;;;;;;15.95;75.96;101562.94;1676450;85;21126;-74
2022/10/11 06:58:17;;;;;;;6.15;2.47;;;;;;;16.27;75.91;101562.16;1675206;85;21053;-74
2022/10/11 07:01:05;;;;;;;10.88;2.40;;;;;;;16.35;75.84;101563.27;1672630;85;21463;-74
2022/10/11 07:03:56;;;;;;;5.58;1.92;;;;;;;16.66;76.06;101575.11;1677579;83;22370;-74
2022/10/11 07:06:41;;;;;;;8.13;2.50;;;;;;;16.97;75.88;101572.11;1672030;85;21052;-75
2022/10/11 07:09:26;;;;;;;5.05;1.82;;;;;;;17.21;75.79;101578.38;1668068;83;21124;-74
2022/10/11 07:12:11;;;;;;;10.48;2.08;;;;;;;17.29;75.54;101584.70;1668538;85;21045;-74
2022/10/11 07:14:57;;;;;;;7.97;2.08;;;;;;;17.36;75.56;101582.33;1667099;84;21134;-74
2022/10/11 07:17:42;;;;;;;6.40;2.35;;;;;;;17.54;75.49;101587.03;1673218;84;21529;-74
2022/10/11 07:20:27;;;;;;;7.10;1.75;;;;;;;17.72;75.41;101589.55;1670742;85;21034;-74
2022/10/11 07:23:12;;;;;;;9.40;2.10;;;;;;;17.90;75.13;101594.23;1674655;84;21136;-74
2022/10/11 07:25:57;;;;;;;6.72;2.17;;;;;;;18.03;75.04;101599.95;1670008;84;21073;-75
2022/10/11 07:28:43;;;;;;;5.97;1.85;;;;;;;18.11;74.86;101602.73;1673675;85;21110;-75
2022/10/11 07:31:28;;;;;;;10.18;2.02;;;;;;;18.16;74.71;101613.06;1669323;84;21049;-74
2022/10/11 07:34:13;;;;;;;5.67;1.90;;;;;;;18.11;74.53;101609.72;1665599;85;21089;-74
2022/10/11 07:36:58;;;;;;;6.35;2.22;;;;;;;18.10;74.40;101617.17;1678731;83;21582;-74
2022/10/11 07:39:43;;;;;;;9.45;2.30;;;;;;;18.13;74.21;101621.00;1692431;83;21612;-74
2022/10/11 07:42:28;;;;;;;6.00;1.80;;;;;;;18.03;74.05;101630.91;1693208;83;21165;-74
2022/10/11 07:45:14;;;;;;;8.05;1.72;;;;;;;17.86;73.66;101633.17;1692173;82;21066;-74
2022/10/11 07:48:00;;;;;;;8.58;1.77;;;;;;;17.74;73.73;101637.45;1688922;83;21070;-74
2022/10/11 07:50:45;;;;;;;5.72;1.80;;;;;;;18.09;73.51;101647.73;1691320;83;21050;-74
2022/10/11 07:53:31;;;;;;;5.00;1.85;;;;;;;18.28;72.84;101643.20;1690580;83;20998;-74
2022/10/11 07:56:28;;;;;;;6.37;1.77;;;;;;;18.32;72.87;101649.60;1697250;82;21470;-74
2022/10/11 07:59:13;;;;;;;6.47;2.17;;;;;;;18.51;72.65;101652.05;1692874;84;21120;-74
2022/10/11 08:01:58;;;;;;;4.78;2.02;;;;;;;18.80;71.87;101651.09;1683481;83;21060;-74
2022/10/11 08:04:43;;;;;;;8.18;2.20;;;;;;;19.13;71.99;101653.02;1687542;83;22012;-74
2022/10/11 08:07:28;;;;;;;10.55;2.52;;;;;;;19.46;71.75;101657.49;1694260;83;21626;-74
2022/10/11 08:10:14;;;;;;;7.53;1.87;;;;;;;19.59;71.52;101664.50;1696396;83;21062;-74
2022/10/11 08:12:59;;;;;;;6.35;1.82;;;;;;;19.41;71.17;101654.18;1693524;83;21565;-74
2022/10/11 08:15:44;;;;;;;9.23;1.95;;;;;;;19.01;71.33;101661.76;1682362;83;21570;-73
2022/10/11 08:18:29;;;;;;;8.10;2.22;;;;;;;18.57;71.21;101668.47;1691650;83;21105;-73
2022/10/11 08:21:17;;;;;;;10.70;2.22;;;;;;;18.01;70.82;101671.97;1696397;82;21074;-73
2022/10/11 08:24:05;;;;;;;8.10;2.30;;;;;;;17.56;70.71;101671.98;1696796;83;20943;-73
2022/10/11 08:26:50;;;;;;;6.55;2.10;;;;;;;17.07;70.44;101676.80;1680502;83;21061;-74
2022/10/11 08:29:35;;;;;;;10.85;2.00;;;;;;;16.67;70.16;101677.37;1684371;83;21113;-73
2022/10/11 08:32:20;;;;;;;7.03;1.77;;;;;;;16.23;69.99;101679.26;1691863;82;21046;-73
2022/10/11 08:35:06;;;;;;;11.88;2.12;;;;;;;15.93;69.95;101679.50;1693657;83;21137;-73
2022/10/11 08:37:50;;;;;;;7.25;1.67;;;;;;;15.74;69.66;101685.54;1694994;83;21145;-73
2022/10/11 08:40:35;;;;;;;6.10;1.70;;;;;;;15.62;69.36;101681.02;1691432;83;21121;-73
2022/10/11 08:43:45;;;;;;;14.65;2.77;;;;;;;15.43;69.13;101681.81;1672380;83;21118;-73
2022/10/11 08:46:34;;;;;;;11.12;2.55;;;;;;;15.16;68.94;101680.13;1692534;82;21050;-73
2022/10/11 08:49:24;;;;;;;10.68;2.30;;;;;;;14.83;68.74;101683.33;1691069;83;21716;-73
2022/10/11 08:52:17;;;;;;;11.93;2.17;;;;;;;14.59;68.61;101685.88;1695651;82;21109;-73
2022/10/11 08:55:13;;;;;;;15.08;3.05;;;;;;;14.42;68.51;101691.37;1693788;83;21125;-73
2022/10/11 08:57:58;;;;;;;11.88;1.60;;;;;;;14.29;68.44;101691.08;1690260;82;21104;-73
2022/10/11 09:00:47;;;;;;;12.10;2.20;;;;;;;14.23;68.38;101691.17;1695793;84;21070;-73
2022/10/11 09:03:42;;;;;;;6.22;1.57;;;;;;;14.13;68.24;101694.33;1694213;82;21090;-73
2022/10/11 09:06:47;;;;;;;6.45;1.50;;;;;;;14.09;68.19;101691.35;1691916;83;21042;-73
2022/10/11 09:09:55;;;;;;;10.95;1.52;;;;;;;14.07;68.06;101700.05;1666545;83;21096;-73
2022/10/11 09:13:06;;;;;;;17.00;2.10;;;;;;;14.06;68.02;101697.89;1683131;82;21782;-72
2022/10/11 09:16:21;;;;;;;10.78;2.80;;;;;;;14.05;67.89;101698.77;1685236;83;21090;-73
2022/10/11 09:19:34;;;;;;;7.37;1.72;;;;;;;14.00;67.67;101701.05;1676002;83;22304;-73
2022/10/11 09:22:49;;;;;;;7.55;2.05;;;;;;;13.99;67.76;101706.69;1687281;83;21680;-73
2022/10/11 09:25:51;;;;;;;10.60;2.22;;;;;;;13.98;67.56;101706.70;1691684;83;21153;-74
2022/10/11 09:29:07;;;;;;;10.35;1.32;;;;;;;14.05;67.65;101709.17;1691983;83;21055;-73
2022/10/11 09:31:55;;;;;;;8.53;1.60;;;;;;;14.10;67.35;101710.42;1690929;83;21074;-73
2022/10/11 09:34:40;;;;;;;7.65;1.85;;;;;;;14.01;67.32;101716.62;1674537;84;21581;-73
2022/10/11 09:37:31;;;;;;;9.53;1.90;;;;;;;13.99;67.33;101710.59;1665894;84;21102;-73
2022/10/11 09:40:49;;;;;;;8.80;1.92;;;;;;;14.02;67.29;101707.95;1665201;85;21016;-73
2022/10/11 09:43:34;;;;;;;7.83;1.82;;;;;;;14.13;67.25;101714.28;1666851;83;20993;-73
2022/10/11 09:46:35;;;;;;;7.28;1.37;;;;;;;14.18;67.07;101709.44;1669809;85;21035;-73
2022/10/11 09:49:39;;;;;;;6.32;1.77;;;;;;;14.25;67.07;101706.31;1627804;83;5000910;-73
2022/10/11 09:52:25;;;;;;;5.87;1.95;;;;;;;14.28;67.34;101706.72;1660087;85;21076;-73
2022/10/11 09:55:15;;;;;;;12.78;2.10;;;;;;;14.30;66.99;101713.62;1665461;84;22516;-73
2022/10/11 09:58:02;;;;;;;10.53;1.70;;;;;;;14.27;66.95;101709.76;1667606;84;21069;-73
2022/10/11 10:01:01;;;;;;;7.40;1.85;;;;;;;14.26;66.93;101717.14;1671079;84;25106;-73
2022/10/11 10:03:46;;;;;;;4.97;1.47;;;;;;;14.23;66.86;101713.28;1668109;84;20982;-73
2022/10/11 10:06:30;;;;;;;11.65;1.92;;;;;;;14.18;66.82;101713.34;1673714;84;20998;-73
2022/10/11 10:09:29;;;;;;;6.58;1.60;;;;;;;14.20;66.89;101710.72;1681019;84;20918;-73
2022/10/11 10:12:22;;;;;;;6.62;1.80;;;;;;;14.26;66.84;101718.45;1678319;84;20958;-73
2022/10/11 10:15:13;;;;;;;6.45;1.60;;;;;;;14.34;66.81;101711.39;1679802;85;20975;-73
2022/10/11 10:17:58;;;;;;;8.48;1.60;;;;;;;14.40;66.73;101712.61;1680166;84;20942;-73
2022/10/11 10:20:49;;;;;;;7.65;1.70;;;;;;;14.39;66.60;101711.33;1679459;85;20934;-73
2022/10/11 10:23:36;;;;;;;8.60;2.05;;;;;;;14.39;66.62;101726.50;1679675;85;20926;-73
2022/10/11 10:26:24;;;;;;;6.03;1.62;;;;;;;14.45;66.61;101730.36;1678088;83;21436;-73
2022/10/11 10:29:19;;;;;;;9.55;1.40;;;;;;;14.56;66.54;101721.06;1680783;83;20954;-73
2022/10/11 10:32:23;;;;;;;7.35;1.70;;;;;;;14.61;66.43;101725.76;1680233;83;20958;-73
2022/10/11 10:35:16;;;;;;;4.80;1.47;;;;;;;14.69;66.40;101728.25;1681042;83;20982;-73
2022/10/11 10:38:18;;;;;;;5.25;1.20;;;;;;;14.72;66.32;101727.77;1694357;83;21617;-73
2022/10/11 10:41:10;;;;;;;7.58;1.50;;;;;;;14.79;66.32;101728.53;1696389;83;21125;-73
2022/10/11 10:43:58;;;;;;;5.45;1.30;;;;;;;14.87;66.20;101736.64;1695843;83;21612;-73
2022/10/11 10:47:22;;;;;;;5.12;1.25;;;;;;;14.91;66.18;101730.94;1696604;83;21649;-73
2022/10/11 10:50:22;;;;;;;8.63;1.25;;;;;;;14.95;66.13;101735.22;1696521;83;21152;-73
2022/10/11 10:53:22;;;;;;;9.28;1.85;;;;;;;14.95;66.04;101743.03;1695610;83;21030;-73
2022/10/11 10:56:27;;;;;;;10.00;1.95;;;;;;;14.89;65.91;101739.22;1696379;83;21065;-73
2022/10/11 10:59:35;;;;;;;7.20;1.45;;;;;;;14.70;65.83;101746.45;1696223;83;21661;-73
2022/10/11 11:02:41;;;;;;;6.62;1.60;;;;;;;14.62;65.83;101748.30;1696704;83;21066;-73
2022/10/11 11:06:09;;;;;;;9.50;1.75;;;;;;;14.44;65.71;101745.55;1696160;83;21522;-73
2022/10/11 11:09:08;;;;;;;9.38;1.90;;;;;;;14.33;65.74;101750.00;1693375;83;21672;-73
2022/10/11 11:12:22;;;;;;;3.10;1.07;;;;;;;14.20;65.68;101744.09;1684864;84;21601;-73
2022/10/11 11:15:12;;;;;;;8.43;1.30;;;;;;;14.14;65.69;101742.88;1694475;82;21515;-73
2022/10/11 11:18:19;;;;;;;10.88;1.67;;;;;;;14.16;65.66;101737.66;1685285;83;21070;-73
2022/10/11 11:21:34;;;;;;;3.45;1.10;;;;;;;14.23;65.61;101738.86;1690466;83;21058;-73
2022/10/11 11:24:45;;;;;;;6.92;1.50;;;;;;;14.32;65.46;101744.83;1691396;83;21133;-74
2022/10/11 11:28:04;;;;;;;13.03;1.47;;;;;;;14.36;65.33;101751.27;1690647;83;21050;-75
2022/10/11 11:31:06;;;;;;;5.58;1.55;;;;;;;14.36;65.23;101746.06;1689969;83;21349;-75
2022/10/11 11:34:17;;;;;;;10.63;1.35;;;;;;;14.32;65.14;101750.02;1676009;83;21514;-75
2022/10/11 11:37:26;;;;;;;7.22;1.32;;;;;;;14.30;65.08;101750.48;1690421;83;21065;-75
2022/10/11 11:40:26;;;;;;;7.55;1.80;;;;;;;14.28;65.07;101750.95;1697656;83;21049;-75
2022/10/11 11:43:40;;;;;;;6.83;1.75;;;;;;;14.22;64.97;101744.08;1693609;83;21050;-75
2022/10/11 11:46:54;;;;;;;4.85;1.40;;;;;;;14.21;64.96;101749.72;1657895;85;21742;-75
2022/10/11 11:49:44;;;;;;;13.93;1.60;;;;;;;14.23;64.94;101751.00;1652931;85;21083;-75
2022/10/11 11:52:38;;;;;;;7.05;1.40;;;;;;;14.17;64.81;101753.24;1642914;85;21610;-75
2022/10/11 11:55:36;;;;;;;3.87;1.15;;;;;;;14.13;64.78;101756.77;1657722;85;21212;-75
2022/10/11 11:58:51;;;;;;;5.67;1.47;;;;;;;14.07;64.79;101752.07;1627779;85;21647;-75
2022/10/11 12:01:47;;;;;;;7.03;2.20;;;;;;;14.05;64.80;101751.23;1656923;85;21138;-75
2022/10/11 12:04:39;;;;;;;6.55;1.60;;;;;;;14.04;64.73;101756.02;1650411;85;198164;-75
2022/10/11 12:07:27;;;;;;;4.87;1.55;;;;;;;13.99;64.64;101748.30;1663636;85;21115;-75
2022/10/11 12:10:17;;;;;;;4.40;1.47;;;;;;;13.90;64.59;101750.56;1661913;85;20952;-75
2022/10/11 12:13:33;;;;;;;10.70;1.60;;;;;;;13.85;64.53;101751.49;1660365;85;21095;-75
2022/10/11 12:16:20;;;;;;;4.78;1.20;;;;;;;13.80;64.50;101747.64;1668106;83;21365;-75
2022/10/11 12:19:06;;;;;;;;;;;;;;;13.80;64.47;101747.64;1687083;83;359379;-75
2022/10/11 12:22:13;;;;;;;4.70;1.67;;;;;;;13.82;64.21;101751.52;1693406;83;20214;-75
2022/10/11 12:25:15;;;;;;;7.40;1.50;;;;;;;13.84;64.41;101751.93;1705078;83;21100;-74
2022/10/11 12:28:08;;;;;;;8.50;1.80;;;;;;;13.93;64.37;101748.80;1692872;82;21073;-74
2022/10/11 12:30:58;;;;;;;7.87;1.70;;;;;;;14.03;64.36;101744.78;1692936;83;22087;-75
2022/10/11 12:33:51;;;;;;;6.40;1.30;;;;;;;14.15;64.31;101744.59;1708030;82;20985;-76
2022/10/11 12:36:48;;;;;;;3.85;1.20;;;;;;;14.30;64.24;101748.75;1707462;83;20976;-77
2022/10/11 12:39:47;;;;;;;4.15;1.30;;;;;;;14.43;64.25;101743.83;1693958;83;20965;-75
2022/10/11 12:42:35;;;;;;;8.00;1.62;;;;;;;14.52;63.96;101746.30;1688529;82;20992;-75
2022/10/11 12:45:30;;;;;;;4.50;1.20;;;;;;;14.51;63.84;101747.63;1691428;83;20967;-77
2022/10/11 12:48:40;;;;;;;6.10;1.27;;;;;;;14.49;63.76;101747.65;1697017;83;20950;-74
2022/10/11 12:51:47;;;;;;;6.03;1.60;;;;;;;14.45;63.63;101747.72;1698812;83;20935;-74
2022/10/11 12:54:58;;;;;;;6.00;1.42;;;;;;;14.35;63.49;101752.15;1688932;82;21443;-74
2022/10/11 12:58:21;;;;;;;6.85;1.32;;;;;;;14.23;63.33;101757.06;1690600;82;22068;-74
2022/10/11 13:01:20;;;;;;;3.95;1.32;;;;;;;14.12;63.26;101751.58;1692133;82;20927;-74
2022/10/11 13:04:11;;;;;;;8.18;1.27;;;;;;;14.02;63.21;101755.20;1689469;83;21391;-75
2022/10/11 13:07:01;;;;;;;8.15;1.25;;;;;;;14.01;63.16;101754.78;1698103;83;21458;-75
2022/10/11 13:09:46;;;;;;;2.95;1.00;;;;;;;13.99;63.08;101750.03;1692656;82;21439;-75
2022/10/11 13:12:36;;;;;;;5.25;1.60;;;;;;;13.98;63.02;101757.41;1694619;82;21295;-75
2022/10/11 13:15:23;;;;;;;7.30;1.57;;;;;;;13.97;62.84;101750.05;1694726;82;21383;-75
2022/10/11 13:18:16;;;;;;;6.03;1.65;;;;;;;13.99;62.83;101752.64;1693220;83;21578;-75